Athens, Michigan
Current Conditions -  °F | °C
As of 11:34 PM on Tuesday 21 Oct 2014 (Local Time) from KOEB Reporting Station
Clear Clear  
Wind Chill:   Ceiling: Unl
Heat Index:   Visibility: 10mi
Dew Point:   Wind: 5mph
Humidity: 88%   Direction: 40°NE
Pressure: 30.25"   Gusts: NA
Location:  42.09°N, 85.23°W
Report Text: KOEB 220334Z AUTO 04004KT 10SM CLR 04/02 A3025 RMK AO2 T00400021
Loading
Personal Weather Stations






























Interactive Weather Map
Tropical Storm Tracking
New forecast layout! Learn more

10-Day Weather Forecast

Advertisements
Track Severe Weather on mobile